Time;durP1;ratioP1;P1;durP2;ratioP2;P2;SDS_P1;SDS_P2;PMS_P1;PMS_P2;Temp;Humidity;BMP_temperature;BMP_pressure;BME280_temperature;BME280_humidity;BME280_pressure;Samples;Min_cycle;Max_cycle;Signal;HPM_P1;HPM_P2
2023/04/12 00:00:34;;;;;;;;;;;;;;;13.13;48.34;99643.22;4968572;28;7246;-75
2023/04/12 00:03:04;;;;;;;;;;;;;;;13.04;48.71;99639.59;4953206;28;8291;-75
2023/04/12 00:05:29;;;;;;;;;;;;;;;12.97;49.22;99626.53;4973883;28;7295;-75
2023/04/12 00:07:55;;;;;;;;;;;;;;;12.89;49.54;99621.16;4959396;28;6960;-75
2023/04/12 00:10:21;;;;;;;;;;;;;;;12.83;49.76;99614.16;4978866;28;7269;-75
2023/04/12 00:12:48;;;;;;;;;;;;;;;12.78;50.28;99614.03;4956488;28;7327;-75
2023/04/12 00:15:14;;;;;;;;;;;;;;;12.72;50.13;99608.75;4962325;28;7091;-75
2023/04/12 00:17:40;;;;;;;;;;;;;;;12.70;50.77;99587.28;4961464;28;7122;-75
2023/04/12 00:20:11;;;;;;;;;;;;;;;12.66;50.61;99584.59;4963238;28;6773;-75
2023/04/12 00:22:40;;;;;;;;;;;;;;;12.62;50.58;99571.63;4970795;28;7316;-75
2023/04/12 00:25:06;;;;;;;;;;;;;;;12.60;50.77;99559.56;4948952;28;6804;-75
2023/04/12 00:27:32;;;;;;;;;;;;;;;12.56;50.65;99566.34;4950103;28;7222;-75
2023/04/12 00:29:57;;;;;;;;;;;;;;;12.53;51.30;99566.25;4946697;28;6972;-75
2023/04/12 00:32:23;;;;;;;;;;;;;;;12.48;51.14;99553.28;4976689;28;7455;-75
2023/04/12 00:34:49;;;;;;;;;;;;;;;12.47;51.01;99551.53;4953081;28;8117;-75
2023/04/12 00:37:15;;;;;;;;;;;;;;;12.45;51.43;99545.50;4955784;28;7151;-75
2023/04/12 00:39:40;;;;;;;;;;;;;;;12.44;51.79;99535.16;4960911;28;6768;-75
2023/04/12 00:42:06;;;;;;;;;;;;;;;12.40;51.84;99529.06;4976311;28;6772;-75
2023/04/12 00:44:33;;;;;;;;;;;;;;;12.40;51.56;99512.81;4975118;28;7933;-75
2023/04/12 00:47:00;;;;;;;;;;;;;;;12.39;51.91;99511.06;4959810;28;6812;-75
2023/04/12 00:49:29;;;;;;;;;;;;;;;12.39;52.12;99500.78;4976274;28;7281;-75
2023/04/12 00:52:07;;;;;;;;;;;;;;;12.39;52.00;99490.50;4948365;28;8223;-75
2023/04/12 00:54:34;;;;;;;;;;;;;;;12.40;51.97;99479.41;4975764;28;7112;-75
2023/04/12 00:57:01;;;;;;;;;;;;;;;12.47;52.21;99483.88;4960026;28;7528;-75
2023/04/12 00:59:27;;;;;;;;;;;;;;;12.55;52.02;99486.63;4959178;28;7179;-75
2023/04/12 01:01:56;;;;;;;;;;;;;;;12.61;51.46;99471.38;4942689;28;6980;-75
2023/04/12 01:04:25;;;;;;;;;;;;;;;12.67;51.50;99474.06;4976525;28;6788;-75
2023/04/12 01:07:38;;;;;;;;;;;;;;;12.71;51.11;99462.16;4976009;28;6796;-75
2023/04/12 01:10:34;;;;;;;;;;;;;;;12.74;51.61;99462.22;4957054;28;6828;-75
2023/04/12 01:13:27;;;;;;;;;;;;;;;12.77;51.51;99454.59;4976404;28;6876;-76
2023/04/12 01:16:13;;;;;;;;;;;;;;;12.83;51.61;99448.75;4959863;28;6948;-77
2023/04/12 01:18:44;;;;;;;;;;;;;;;12.88;51.17;99437.72;4960021;28;7457;-77
2023/04/12 01:21:18;;;;;;;;;;;;;;;12.92;50.93;99426.66;4959605;28;7579;-75
2023/04/12 01:24:30;;;;;;;;;;;;;;;12.97;51.53;99420.78;4962985;28;6935;-75
2023/04/12 01:26:59;;;;;;;;;;;;;;;12.99;50.71;99424.22;4959975;28;7205;-75
2023/04/12 01:29:29;;;;;;;;;;;;;;;13.00;50.72;99415.69;4943977;28;6850;-75
2023/04/12 01:32:01;;;;;;;;;;;;;;;13.02;51.26;99409.75;4960116;28;6800;-75
2023/04/12 01:34:34;;;;;;;;;;;;;;;13.03;51.26;99395.16;4959713;28;6800;-75
2023/04/12 01:37:02;;;;;;;;;;;;;;;13.03;51.16;99379.72;4943353;28;6991;-75
2023/04/12 01:39:32;;;;;;;;;;;;;;;13.07;50.59;99378.97;4970154;28;6776;-75
2023/04/12 01:41:58;;;;;;;;;;;;;;;13.10;50.72;99376.47;4940603;28;7229;-75
2023/04/12 01:44:24;;;;;;;;;;;;;;;13.11;51.39;99364.47;4944652;28;7035;-75
2023/04/12 01:46:51;;;;;;;;;;;;;;;13.10;50.94;99357.59;4960413;28;8704;-75
2023/04/12 01:49:20;;;;;;;;;;;;;;;13.12;51.63;99361.06;4963748;28;6804;-75
2023/04/12 01:51:53;;;;;;;;;;;;;;;13.11;51.22;99342.19;4979911;28;6884;-75
2023/04/12 01:54:35;;;;;;;;;;;;;;;13.12;51.28;99336.19;4952295;28;6961;-75
2023/04/12 01:57:03;;;;;;;;;;;;;;;13.08;51.54;99338.66;4952985;28;7078;-75
2023/04/12 01:59:43;;;;;;;;;;;;;;;13.05;51.39;99335.22;4954342;28;7218;-75
2023/04/12 02:02:11;;;;;;;;;;;;;;;13.01;51.17;99337.69;4980407;28;7410;-75
2023/04/12 02:04:38;;;;;;;;;;;;;;;12.96;51.46;99326.44;4945865;28;7170;-75
2023/04/12 02:07:04;;;;;;;;;;;;;;;12.91;51.68;99326.34;4943437;28;8093;-75
2023/04/12 02:09:34;;;;;;;;;;;;;;;12.85;51.30;99301.38;4954127;28;6772;-75
2023/04/12 02:12:00;;;;;;;;;;;;;;;12.80;52.27;99292.69;4964826;28;6864;-75
2023/04/12 02:14:26;;;;;;;;;;;;;;;12.77;51.52;99295.19;4964572;28;7896;-75
2023/04/12 02:16:54;;;;;;;;;;;;;;;12.74;51.58;99275.41;4978749;28;7662;-75
2023/04/12 02:19:20;;;;;;;;;;;;;;;12.74;52.64;99287.41;4953935;28;7324;-75
2023/04/12 02:21:45;;;;;;;;;;;;;;;12.73;52.18;99270.25;4980608;28;7155;-75
2023/04/12 02:24:11;;;;;;;;;;;;;;;12.72;51.95;99271.97;4958568;28;6953;-75
2023/04/12 02:26:38;;;;;;;;;;;;;;;12.73;52.80;99258.25;4954203;28;7008;-75
2023/04/12 02:29:08;;;;;;;;;;;;;;;12.72;52.13;99253.09;4979472;28;6808;-76
2023/04/12 02:31:35;;;;;;;;;;;;;;;12.72;52.31;99253.97;4975241;28;6799;-75
2023/04/12 02:34:01;;;;;;;;;;;;;;;12.70;52.42;99244.47;4979880;28;8093;-76
2023/04/12 02:36:28;;;;;;;;;;;;;;;12.71;52.43;99233.34;4962995;28;6804;-75
2023/04/12 02:38:55;;;;;;;;;;;;;;;12.73;52.45;99230.00;4982972;28;7043;-75
2023/04/12 02:41:22;;;;;;;;;;;;;;;12.76;52.39;99224.03;4978644;28;6870;-76
2023/04/12 02:43:48;;;;;;;;;;;;;;;12.82;52.37;99211.28;4955083;28;6784;-76
2023/04/12 02:46:18;;;;;;;;;;;;;;;12.89;51.77;99194.28;4958866;28;7185;-76
2023/04/12 02:48:44;;;;;;;;;;;;;;;12.94;51.67;99190.09;4955653;28;6959;-76
2023/04/12 02:51:10;;;;;;;;;;;;;;;13.00;51.69;99185.09;4963484;28;6792;-75
2023/04/12 02:53:36;;;;;;;;;;;;;;;13.04;51.36;99175.72;4963530;28;7226;-76
2023/04/12 02:56:06;;;;;;;;;;;;;;;13.08;51.98;99163.75;4959261;28;6924;-76
2023/04/12 02:58:35;;;;;;;;;;;;;;;13.10;51.31;99160.38;4964891;28;6812;-73
2023/04/12 03:01:00;;;;;;;;;;;;;;;13.11;51.14;99148.41;4976562;28;6808;-76
2023/04/12 03:03:27;;;;;;;;;;;;;;;13.09;51.37;99137.22;4963223;28;6979;-72
2023/04/12 03:05:53;;;;;;;;;;;;;;;13.04;51.25;99134.56;4960561;28;7690;-73
2023/04/12 03:08:20;;;;;;;;;;;;;;;12.97;52.00;99120.72;4958292;28;6867;-76
2023/04/12 03:10:46;;;;;;;;;;;;;;;12.95;51.50;99116.41;4956706;28;6894;-73
2023/04/12 03:13:12;;;;;;;;;;;;;;;12.95;51.46;99106.13;4957765;28;6945;-73
2023/04/12 03:15:39;;;;;;;;;;;;;;;12.98;51.67;99098.44;4943524;28;6966;-73
2023/04/12 03:18:05;;;;;;;;;;;;;;;13.03;51.49;99094.22;4965396;28;7226;-72
2023/04/12 03:20:30;;;;;;;;;;;;;;;13.05;51.34;99095.13;4954780;28;7126;-74
2023/04/12 03:22:56;;;;;;;;;;;;;;;13.03;52.22;99089.97;4954292;28;6844;-73
2023/04/12 03:25:21;;;;;;;;;;;;;;;12.98;51.56;99081.28;4951690;28;6971;-73
2023/04/12 03:27:47;;;;;;;;;;;;;;;12.92;51.85;99069.19;4975352;28;6776;-72
2023/04/12 03:30:13;;;;;;;;;;;;;;;12.87;52.43;99063.13;4952192;28;6954;-74
2023/04/12 03:32:41;;;;;;;;;;;;;;;12.80;52.72;99055.28;4970784;28;6829;-73
2023/04/12 03:35:09;;;;;;;;;;;;;;;12.74;52.65;99056.00;4955432;28;7003;-74
2023/04/12 03:37:34;;;;;;;;;;;;;;;12.71;52.58;99045.69;4974758;28;7658;-75
2023/04/12 03:40:00;;;;;;;;;;;;;;;12.69;53.13;99050.78;4960753;28;6772;-75
2023/04/12 03:42:29;;;;;;;;;;;;;;;12.68;53.73;99035.38;4945318;28;6799;-75
2023/04/12 03:44:55;;;;;;;;;;;;;;;12.67;53.01;99036.22;4952741;28;6833;-75
2023/04/12 03:47:21;;;;;;;;;;;;;;;12.65;53.05;99023.31;4960411;28;8790;-75
2023/04/12 03:49:46;;;;;;;;;;;;;;;12.63;53.86;99022.44;4959543;28;6828;-75
2023/04/12 03:52:12;;;;;;;;;;;;;;;12.64;53.76;99019.03;4976094;28;6840;-75
2023/04/12 03:54:38;;;;;;;;;;;;;;;12.64;53.41;99019.88;4976853;28;6785;-75
2023/04/12 03:57:04;;;;;;;;;;;;;;;12.63;54.02;99018.13;4941734;28;6958;-75
2023/04/12 03:59:31;;;;;;;;;;;;;;;12.61;54.41;99013.84;4973774;28;8243;-75
2023/04/12 04:02:00;;;;;;;;;;;;;;;12.60;54.12;99004.38;4955793;28;6816;-75
2023/04/12 04:04:26;;;;;;;;;;;;;;;12.57;54.50;98996.59;4951500;28;6888;-75
2023/04/12 04:06:52;;;;;;;;;;;;;;;12.55;54.11;98991.44;4968727;28;6780;-75
2023/04/12 04:09:19;;;;;;;;;;;;;;;12.54;54.86;98992.28;4948616;28;7290;-76
2023/04/12 04:11:45;;;;;;;;;;;;;;;12.53;54.47;98982.84;4952734;28;6808;-76
2023/04/12 04:14:12;;;;;;;;;;;;;;;12.52;55.09;98973.41;4968125;28;8290;-76
2023/04/12 04:16:37;;;;;;;;;;;;;;;12.49;54.95;98970.78;4935564;28;7202;-76
2023/04/12 04:19:03;;;;;;;;;;;;;;;12.48;54.95;98956.22;4951301;28;7360;-76
2023/04/12 04:21:29;;;;;;;;;;;;;;;12.46;55.01;98958.75;4952405;28;7262;-76
2023/04/12 04:23:57;;;;;;;;;;;;;;;12.46;55.03;98950.19;4955537;28;6976;-75
2023/04/12 04:26:32;;;;;;;;;;;;;;;12.45;55.77;98956.13;4957961;28;7236;-76
2023/04/12 04:29:00;;;;;;;;;;;;;;;12.42;56.25;98945.81;4978227;28;6887;-76
2023/04/12 04:31:33;;;;;;;;;;;;;;;12.42;56.03;98946.69;4950344;28;7415;-76
2023/04/12 04:34:02;;;;;;;;;;;;;;;12.40;56.19;98943.22;4962542;28;7835;-76
2023/04/12 04:36:28;;;;;;;;;;;;;;;12.40;56.17;98942.38;4959795;28;7006;-75
2023/04/12 04:38:56;;;;;;;;;;;;;;;12.38;56.54;98936.34;4958831;28;6919;-76
2023/04/12 04:41:23;;;;;;;;;;;;;;;12.38;56.68;98933.78;4957649;28;6792;-76
2023/04/12 04:43:50;;;;;;;;;;;;;;;12.38;56.13;98939.75;4974983;28;6809;-76
2023/04/12 04:46:19;;;;;;;;;;;;;;;12.36;56.32;98934.63;4959214;28;6808;-76
2023/04/12 04:48:50;;;;;;;;;;;;;;;12.36;56.31;98926.91;4972831;28;6884;-76
2023/04/12 04:51:16;;;;;;;;;;;;;;;12.37;56.74;98930.31;4960004;28;7056;-75
2023/04/12 04:53:43;;;;;;;;;;;;;;;12.39;56.81;98932.94;4971415;28;7774;-76
2023/04/12 04:56:09;;;;;;;;;;;;;;;12.39;56.66;98928.63;4953520;28;7631;-76
2023/04/12 04:58:35;;;;;;;;;;;;;;;12.39;56.77;98920.09;4970680;28;7436;-76
2023/04/12 05:01:01;;;;;;;;;;;;;;;12.40;56.82;98919.25;4965311;28;7429;-76
2023/04/12 05:03:27;;;;;;;;;;;;;;;12.40;57.06;98911.53;4961256;28;6777;-76
2023/04/12 05:05:54;;;;;;;;;;;;;;;12.39;57.69;98912.38;4961250;28;6792;-76
2023/04/12 05:08:21;;;;;;;;;;;;;;;12.40;57.45;98907.25;4955277;28;7232;-76
2023/04/12 05:10:51;;;;;;;;;;;;;;;12.41;57.57;98892.69;4976353;28;6784;-76
2023/04/12 05:13:18;;;;;;;;;;;;;;;12.40;57.24;98902.09;4971556;28;6841;-76
2023/04/12 05:15:43;;;;;;;;;;;;;;;12.41;57.51;98901.28;4959381;28;6991;-76
2023/04/12 05:18:09;;;;;;;;;;;;;;;12.40;57.92;98894.41;4972909;28;6960;-76
2023/04/12 05:20:37;;;;;;;;;;;;;;;12.42;57.90;98897.00;4977805;28;6957;-77
2023/04/12 05:23:03;;;;;;;;;;;;;;;12.43;57.88;98891.00;4957273;28;7066;-77
2023/04/12 05:25:28;;;;;;;;;;;;;;;12.41;58.02;98887.56;4970504;28;7110;-76
2023/04/12 05:27:54;;;;;;;;;;;;;;;12.42;57.88;98885.03;4967228;28;6843;-76
2023/04/12 05:30:21;;;;;;;;;;;;;;;12.44;57.79;98878.22;4966847;28;7024;-77
2023/04/12 05:32:46;;;;;;;;;;;;;;;12.44;58.14;98883.34;4974133;28;6830;-77
2023/04/12 05:35:12;;;;;;;;;;;;;;;12.46;58.42;98875.66;4966212;28;6780;-77
2023/04/12 05:37:38;;;;;;;;;;;;;;;12.47;58.62;98874.81;4964538;28;6768;-75
2023/04/12 05:40:08;;;;;;;;;;;;;;;12.47;58.25;98872.25;4980264;28;6836;-75
2023/04/12 05:42:36;;;;;;;;;;;;;;;12.48;58.24;98868.84;4977241;28;6787;-76
2023/04/12 05:45:03;;;;;;;;;;;;;;;12.48;58.74;98861.13;4955687;28;7648;-76
2023/04/12 05:47:29;;;;;;;;;;;;;;;12.51;58.42;98858.59;4946545;28;7623;-76
2023/04/12 05:49:55;;;;;;;;;;;;;;;12.52;58.88;98862.91;4959510;28;7017;-76
2023/04/12 05:52:20;;;;;;;;;;;;;;;12.51;58.15;98848.31;4983591;28;7906;-76
2023/04/12 05:54:46;;;;;;;;;;;;;;;12.52;58.96;98852.63;4967775;28;8841;-76
2023/04/12 05:57:11;;;;;;;;;;;;;;;12.54;59.13;98850.94;4969522;28;6987;-76
2023/04/12 05:59:37;;;;;;;;;;;;;;;12.57;59.22;98850.13;4983382;28;6970;-76
2023/04/12 06:02:03;;;;;;;;;;;;;;;12.58;58.99;98844.13;4956192;28;7237;-76
2023/04/12 06:04:30;;;;;;;;;;;;;;;12.61;58.67;98839.06;4965880;28;6804;-76
2023/04/12 06:06:56;;;;;;;;;;;;;;;12.63;58.72;98833.06;4966592;28;6904;-76
2023/04/12 06:09:22;;;;;;;;;;;;;;;12.68;58.81;98829.72;4943047;28;7264;-76
2023/04/12 06:11:47;;;;;;;;;;;;;;;12.69;59.25;98831.44;4960030;28;6970;-76
2023/04/12 06:14:13;;;;;;;;;;;;;;;12.69;59.13;98827.16;4968659;28;6768;-76
2023/04/12 06:16:39;;;;;;;;;;;;;;;12.72;59.25;98818.63;4963497;28;7963;-76
2023/04/12 06:19:04;;;;;;;;;;;;;;;12.71;59.44;98819.47;4963425;28;7024;-76
2023/04/12 06:21:30;;;;;;;;;;;;;;;12.74;59.04;98811.78;4961066;28;8248;-77
2023/04/12 06:23:56;;;;;;;;;;;;;;;12.75;59.03;98816.97;4968650;28;6790;-76
2023/04/12 06:26:21;;;;;;;;;;;;;;;12.76;59.49;98808.41;4964147;28;7125;-76
2023/04/12 06:28:47;;;;;;;;;;;;;;;12.79;58.85;98807.59;4967005;28;6953;-76
2023/04/12 06:31:15;;;;;;;;;;;;;;;12.82;59.27;98812.78;4965564;28;6836;-76
2023/04/12 06:33:41;;;;;;;;;;;;;;;12.87;59.73;98805.13;4973267;28;6982;-76
2023/04/12 06:36:08;;;;;;;;;;;;;;;12.93;59.52;98802.63;4972151;28;7822;-76
2023/04/12 06:38:33;;;;;;;;;;;;;;;12.97;59.28;98796.69;4950208;28;7284;-76
2023/04/12 06:40:59;;;;;;;;;;;;;;;13.02;59.39;98794.16;4952625;28;7023;-76
2023/04/12 06:43:25;;;;;;;;;;;;;;;13.08;59.14;98790.78;4981031;28;6803;-76
2023/04/12 06:45:51;;;;;;;;;;;;;;;13.14;59.24;98784.03;4963461;28;6784;-76
2023/04/12 06:48:17;;;;;;;;;;;;;;;13.22;59.80;98778.09;4980870;28;6986;-76
2023/04/12 06:50:44;;;;;;;;;;;;;;;13.26;59.03;98788.44;4981419;28;6853;-76
2023/04/12 06:53:12;;;;;;;;;;;;;;;13.32;59.52;98778.22;4982441;28;7357;-76
2023/04/12 06:55:38;;;;;;;;;;;;;;;13.35;58.75;98782.56;4958312;28;7436;-76
2023/04/12 06:58:03;;;;;;;;;;;;;;;13.36;58.87;98784.28;4962602;28;7386;-76
2023/04/12 07:00:29;;;;;;;;;;;;;;;13.36;59.45;98778.25;4948640;28;7206;-77
2023/04/12 07:02:54;;;;;;;;;;;;;;;13.36;58.93;98758.53;4960422;28;7413;-76
2023/04/12 07:05:20;;;;;;;;;;;;;;;13.36;59.14;98770.53;4971158;28;6776;-77
2023/04/12 07:07:46;;;;;;;;;;;;;;;13.35;58.70;98761.97;4951988;28;6941;-77
2023/04/12 07:10:11;;;;;;;;;;;;;;;13.37;59.64;98764.53;4979420;28;6922;-76
2023/04/12 07:12:37;;;;;;;;;;;;;;;13.39;59.03;98758.56;4965639;28;6767;-76
2023/04/12 07:15:03;;;;;;;;;;;;;;;13.40;58.71;98749.16;4947771;28;7228;-76
2023/04/12 07:17:29;;;;;;;;;;;;;;;13.42;59.71;98750.91;4961543;28;7224;-76
2023/04/12 07:19:55;;;;;;;;;;;;;;;13.43;59.42;98747.47;4965271;28;6776;-76
2023/04/12 07:22:20;;;;;;;;;;;;;;;13.47;59.23;98751.81;4957259;28;6956;-76
2023/04/12 07:24:49;;;;;;;;;;;;;;;13.53;59.89;98748.44;4976522;28;6780;-76
2023/04/12 07:27:15;;;;;;;;;;;;;;;13.58;59.13;98751.94;4982373;28;7180;-77
2023/04/12 07:29:40;;;;;;;;;;;;;;;13.61;60.06;98749.38;4958894;28;6949;-77
2023/04/12 07:32:08;;;;;;;;;;;;;;;13.65;59.90;98749.41;4981164;28;7067;-77
2023/04/12 07:34:35;;;;;;;;;;;;;;;13.67;58.99;98756.28;4968179;28;6796;-77
2023/04/12 07:37:01;;;;;;;;;;;;;;;13.67;59.49;98746.00;4964711;28;6926;-76
2023/04/12 07:39:28;;;;;;;;;;;;;;;13.70;59.80;98745.16;4974694;28;6915;-77
2023/04/12 07:41:54;;;;;;;;;;;;;;;13.73;59.78;98745.19;4982405;28;7042;-76
2023/04/12 07:44:20;;;;;;;;;;;;;;;13.78;59.42;98740.06;4965494;28;6804;-76
2023/04/12 07:46:46;;;;;;;;;;;;;;;13.81;59.15;98747.81;4967440;28;6816;-76
2023/04/12 07:49:12;;;;;;;;;;;;;;;13.85;59.18;98747.00;4966442;28;7256;-76
2023/04/12 07:51:37;;;;;;;;;;;;;;;13.88;60.13;98741.88;4961011;28;7117;-76
2023/04/12 07:54:03;;;;;;;;;;;;;;;13.91;59.53;98733.31;4981458;28;7074;-76
2023/04/12 07:56:32;;;;;;;;;;;;;;;13.94;59.57;98731.63;4966661;28;6776;-77
2023/04/12 07:58:57;;;;;;;;;;;;;;;13.98;59.47;98738.50;4964553;28;7179;-76
2023/04/12 08:01:23;;;;;;;;;;;;;;;14.01;59.71;98730.81;4965642;28;6951;-77
2023/04/12 08:03:49;;;;;;;;;;;;;;;14.03;59.26;98736.84;4940675;28;7276;-76
2023/04/12 08:06:16;;;;;;;;;;;;;;;14.02;59.20;98737.69;4965887;28;6932;-76
2023/04/12 08:08:41;;;;;;;;;;;;;;;14.00;59.92;98752.28;4966404;28;7991;-76
2023/04/12 08:11:07;;;;;;;;;;;;;;;13.98;59.60;98738.50;4964117;28;7066;-76
2023/04/12 08:13:34;;;;;;;;;;;;;;;13.97;59.42;98746.25;4955927;28;7269;-76
2023/04/12 08:16:00;;;;;;;;;;;;;;;13.97;59.97;98743.66;4966975;28;7755;-76
2023/04/12 08:18:27;;;;;;;;;;;;;;;13.97;59.59;98736.78;4967180;28;6780;-76
2023/04/12 08:20:53;;;;;;;;;;;;;;;14.02;59.94;98753.16;4981248;28;6784;-76
2023/04/12 08:23:18;;;;;;;;;;;;;;;14.07;59.91;98757.47;4981375;28;6772;-76
2023/04/12 08:25:44;;;;;;;;;;;;;;;14.10;60.57;98753.19;4950154;28;7167;-76
2023/04/12 08:28:10;;;;;;;;;;;;;;;14.13;60.07;98750.63;4973731;28;6775;-76
2023/04/12 08:30:35;;;;;;;;;;;;;;;14.19;60.24;98749.81;4956658;28;7122;-76
2023/04/12 08:33:01;;;;;;;;;;;;;;;14.24;60.10;98761.03;4961786;28;7765;-76
2023/04/12 08:35:27;;;;;;;;;;;;;;;14.24;59.99;98761.03;4963315;28;6843;-76
2023/04/12 08:37:52;;;;;;;;;;;;;;;14.25;59.66;98762.75;4960770;28;6825;-76
2023/04/12 08:40:20;;;;;;;;;;;;;;;14.24;60.63;98755.00;4955675;28;7194;-76
2023/04/12 08:42:46;;;;;;;;;;;;;;;14.24;59.85;98762.72;4959913;28;6995;-75
2023/04/12 08:45:12;;;;;;;;;;;;;;;14.27;60.87;98765.34;4955791;28;6855;-76
2023/04/12 08:47:43;;;;;;;;;;;;;;;14.34;61.00;98766.25;4955101;28;6788;-76
2023/04/12 08:50:12;;;;;;;;;;;;;;;14.40;60.87;98768.88;4957021;28;6804;-76
2023/04/12 08:52:40;;;;;;;;;;;;;;;14.48;60.12;98762.03;4957802;28;6869;-76
2023/04/12 08:55:08;;;;;;;;;;;;;;;14.56;60.85;98764.66;4969935;28;7079;-76
2023/04/12 08:57:40;;;;;;;;;;;;;;;14.63;60.29;98765.56;4973607;28;6800;-75
2023/04/12 09:00:08;;;;;;;;;;;;;;;14.64;60.01;98765.56;4977889;28;6828;-76
2023/04/12 09:02:38;;;;;;;;;;;;;;;14.63;60.20;98760.41;4961010;28;6820;-75
2023/04/12 09:05:05;;;;;;;;;;;;;;;14.67;60.59;98764.69;4958227;28;6796;-76
2023/04/12 09:07:31;;;;;;;;;;;;;;;14.79;60.43;98772.56;4976605;28;6808;-76
2023/04/12 09:09:57;;;;;;;;;;;;;;;14.96;60.85;98776.91;4975001;28;6784;-76
2023/04/12 09:12:23;;;;;;;;;;;;;;;15.13;60.95;98775.25;4960086;28;6876;-76
2023/04/12 09:15:16;;;;;;;;;;;;;;;15.40;60.27;98776.19;4956395;28;6963;-76
2023/04/12 09:17:42;;;;;;;;;;;;;;;15.63;60.22;98772.78;4952926;28;6996;-76
2023/04/12 09:20:16;;;;;;;;;;;;;;;15.87;59.25;98765.94;4975318;28;6844;-76
2023/04/12 09:22:44;;;;;;;;;;;;;;;16.03;58.24;98768.53;4960533;28;6788;-76
2023/04/12 09:25:12;;;;;;;;;;;;;;;16.17;58.07;98764.22;4961441;28;7041;-76
2023/04/12 09:27:50;;;;;;;;;;;;;;;16.30;57.33;98761.59;4974231;28;7252;-75
2023/04/12 09:30:18;;;;;;;;;;;;;;;16.43;56.99;98762.44;4959195;28;6812;-75
2023/04/12 09:32:44;;;;;;;;;;;;;;;16.62;56.72;98761.53;4972241;28;7009;-78
2023/04/12 09:35:10;;;;;;;;;;;;;;;16.84;56.61;98758.88;4958968;28;6807;-75
2023/04/12 09:37:36;;;;;;;;;;;;;;;17.10;56.92;98757.09;4954394;28;6995;-76
2023/04/12 09:40:09;;;;;;;;;;;;;;;17.44;56.33;98754.28;4975563;28;7752;-75
2023/04/12 09:42:51;;;;;;;;;;;;;;;17.70;55.61;98759.28;4959809;28;6788;-75
2023/04/12 09:45:24;;;;;;;;;;;;;;;17.79;54.27;98766.16;4957744;28;6947;-75
2023/04/12 09:47:51;;;;;;;;;;;;;;;17.70;53.03;98771.41;4973008;28;8409;-75
2023/04/12 09:50:26;;;;;;;;;;;;;;;17.47;51.80;98767.22;4957837;28;6804;-75
2023/04/12 09:52:53;;;;;;;;;;;;;;;17.16;51.82;98768.28;4960657;28;7011;-75
2023/04/12 09:55:22;;;;;;;;;;;;;;;16.89;51.51;98764.03;4955449;28;8083;-75
2023/04/12 09:57:51;;;;;;;;;;;;;;;16.65;51.93;98768.44;4976282;28;6857;-75
2023/04/12 10:00:17;;;;;;;;;;;;;;;16.43;51.79;98771.09;4959567;28;7907;-75
2023/04/12 10:02:49;;;;;;;;;;;;;;;16.23;51.66;98777.16;4961169;28;6803;-75
2023/04/12 10:05:18;;;;;;;;;;;;;;;16.06;51.59;98784.03;4954641;28;7330;-75
2023/04/12 10:07:45;;;;;;;;;;;;;;;15.98;51.60;98785.75;4961401;28;7265;-75
2023/04/12 10:10:16;;;;;;;;;;;;;;;15.99;52.36;98782.31;4979352;28;7114;-75
2023/04/12 10:12:45;;;;;;;;;;;;;;;16.11;52.71;98787.47;4966042;28;6980;-75
2023/04/12 10:15:16;;;;;;;;;;;;;;;16.31;52.62;98789.19;4956044;28;7281;-76
2023/04/12 10:17:45;;;;;;;;;;;;;;;16.49;52.42;98783.97;4957965;28;6995;-76
2023/04/12 10:20:15;;;;;;;;;;;;;;;16.65;52.02;98786.53;4961613;28;7073;-76
2023/04/12 10:22:52;;;;;;;;;;;;;;;16.75;51.73;98777.88;4973178;28;7673;-76
2023/04/12 10:25:24;;;;;;;;;;;;;;;16.84;51.44;98781.31;4956443;28;7219;-76
2023/04/12 10:27:50;;;;;;;;;;;;;;;16.93;51.07;98770.94;4955460;28;6861;-75
2023/04/12 10:30:30;;;;;;;;;;;;;;;17.08;51.30;98765.69;4953250;28;7250;-75
2023/04/12 10:33:02;;;;;;;;;;;;;;;17.33;51.01;98768.16;4953928;28;7664;-75
2023/04/12 10:35:30;;;;;;;;;;;;;;;17.68;50.87;98762.78;4979069;28;6967;-75
2023/04/12 10:38:05;;;;;;;;;;;;;;;18.15;50.61;98753.75;4976962;28;6789;-76
2023/04/12 10:40:32;;;;;;;;;;;;;;;18.57;49.54;98760.28;4979243;28;7096;-76
2023/04/12 10:43:18;;;;;;;;;;;;;;;18.99;49.16;98758.03;4979011;28;6960;-76
2023/04/12 10:45:44;;;;;;;;;;;;;;;19.33;48.26;98763.72;4952751;28;7020;-76
2023/04/12 10:48:50;;;;;;;;;;;;;;;19.59;47.23;98758.13;4978841;28;8066;-76
2023/04/12 10:51:25;;;;;;;;;;;;;;;19.69;46.99;98762.28;4964340;28;6870;-76
2023/04/12 10:53:52;;;;;;;;;;;;;;;19.73;46.03;98760.50;4948460;28;7015;-76
2023/04/12 10:56:30;;;;;;;;;;;;;;;19.66;45.20;98761.47;4980277;28;6808;-76
2023/04/12 10:59:10;;;;;;;;;;;;;;;19.62;45.59;98780.63;4964034;28;6780;-76
2023/04/12 11:01:37;;;;;;;;;;;;;;;19.87;45.73;98773.28;4959668;28;7132;-76
2023/04/12 11:04:14;;;;;;;;;;;;;;;20.23;44.79;98772.72;4939014;28;7001;-76
2023/04/12 11:06:52;;;;;;;;;;;;;;;20.39;44.09;98770.69;4961239;28;7747;-76
2023/04/12 11:09:27;;;;;;;;;;;;;;;20.44;43.79;98762.81;4964971;28;6959;-75
2023/04/12 11:12:18;;;;;;;;;;;;;;;20.79;43.50;98769.91;4962825;28;6784;-75
2023/04/12 11:14:48;;;;;;;;;;;;;;;21.12;42.45;98764.09;4955042;28;6824;-76
2023/04/12 11:17:13;;;;;;;;;;;;;;;21.28;41.88;98772.41;4974780;28;6808;-76
2023/04/12 11:19:48;;;;;;;;;;;;;;;21.42;42.26;98773.88;4964264;28;6855;-75
2023/04/12 11:22:17;;;;;;;;;;;;;;;21.52;41.52;98770.16;4963178;28;7075;-76
2023/04/12 11:24:46;;;;;;;;;;;;;;;21.43;40.85;98768.59;4963637;28;6816;-76
2023/04/12 11:27:15;;;;;;;;;;;;;;;21.21;40.80;98757.84;4956563;28;7309;-75
2023/04/12 11:29:42;;;;;;;;;;;;;;;20.97;40.75;98765.25;4958687;28;6872;-76
2023/04/12 11:32:13;;;;;;;;;;;;;;;20.66;40.75;98769.31;4952482;28;6982;-75
2023/04/12 11:34:41;;;;;;;;;;;;;;;20.33;40.83;98763.88;4957763;28;7297;-75
2023/04/12 11:37:08;;;;;;;;;;;;;;;20.02;40.93;98764.41;4955971;28;6800;-75
2023/04/12 11:39:44;;;;;;;;;;;;;;;19.74;40.70;98757.03;4965247;28;6804;-75
2023/04/12 11:42:18;;;;;;;;;;;;;;;19.55;41.56;98767.69;4954110;28;6797;-75
2023/04/12 11:44:45;;;;;;;;;;;;;;;19.46;41.49;98770.44;4979935;28;7148;-75
2023/04/12 11:47:23;;;;;;;;;;;;;;;19.52;41.83;98775.56;4940416;28;7604;-75
2023/04/12 11:49:55;;;;;;;;;;;;;;;19.65;42.31;98775.34;4964257;28;6810;-75
2023/04/12 11:52:29;;;;;;;;;;;;;;;19.73;41.81;98764.84;4963628;28;6823;-75
2023/04/12 11:54:57;;;;;;;;;;;;;;;19.78;41.60;98770.84;4955701;28;7162;-75
2023/04/12 11:57:23;;;;;;;;;;;;;;;19.69;40.73;98780.50;4960164;28;7302;-75
2023/04/12 11:59:50;;;;;;;;;;;;;;;19.57;40.49;98786.72;4978702;28;6875;-75
2023/04/12 12:02:17;;;;;;;;;;;;;;;19.50;41.06;98779.88;4944280;28;7241;-75
2023/04/12 12:04:47;;;;;;;;;;;;;;;19.52;41.40;98778.16;4953027;28;7457;-75
2023/04/12 12:07:16;;;;;;;;;;;;;;;19.56;41.28;98772.00;4973823;28;6831;-75
2023/04/12 12:09:43;;;;;;;;;;;;;;;19.65;41.32;98760.63;4977724;28;8085;-75
2023/04/12 12:12:13;;;;;;;;;;;;;;;19.82;41.44;98759.50;4944377;28;7003;-75
2023/04/12 12:14:42;;;;;;;;;;;;;;;19.97;41.42;98758.41;4962025;28;7255;-75
2023/04/12 12:17:15;;;;;;;;;;;;;;;20.20;41.23;98751.97;4966206;28;7262;-75
2023/04/12 12:19:43;;;;;;;;;;;;;;;20.52;40.33;98745.31;4963021;28;6907;-75
2023/04/12 12:22:20;;;;;;;;;;;;;;;20.69;39.77;98747.56;4959438;28;6980;-75
2023/04/12 12:24:57;;;;;;;;;;;;;;;20.67;39.41;98747.63;4978622;28;6848;-75
2023/04/12 12:27:33;;;;;;;;;;;;;;;20.61;39.36;98750.34;4964760;28;6888;-75
2023/04/12 12:30:01;;;;;;;;;;;;;;;20.44;39.08;98757.59;4967084;28;7229;-75
2023/04/12 12:32:36;;;;;;;;;;;;;;;20.22;39.21;98765.81;4953170;28;7421;-75
2023/04/12 12:35:02;;;;;;;;;;;;;;;20.06;39.83;98766.06;4967498;28;6792;-75
2023/04/12 12:37:29;;;;;;;;;;;;;;;19.96;40.31;98769.69;4960730;28;6856;-75
2023/04/12 12:40:14;;;;;;;;;;;;;;;19.82;39.99;98756.91;4945996;28;7130;-75
2023/04/12 12:42:44;;;;;;;;;;;;;;;19.66;39.52;98759.75;4962696;28;7074;-75
2023/04/12 12:45:12;;;;;;;;;;;;;;;19.68;39.99;98757.13;4966802;28;7039;-75
2023/04/12 12:47:53;;;;;;;;;;;;;;;19.87;39.62;98762.03;4975537;28;6808;-75
2023/04/12 12:50:23;;;;;;;;;;;;;;;20.17;39.40;98749.41;4937825;28;7242;-75
2023/04/12 12:52:49;;;;;;;;;;;;;;;20.64;39.25;98750.25;4940946;28;7358;-75
2023/04/12 12:55:16;;;;;;;;;;;;;;;21.37;39.00;98743.56;4936454;28;7277;-74
2023/04/12 12:57:47;;;;;;;;;;;;;;;22.29;38.28;98735.28;4970190;28;6800;-74
2023/04/12 13:00:14;;;;;;;;;;;;;;;22.78;36.88;98735.69;4962792;28;7589;-75
2023/04/12 13:02:41;;;;;;;;;;;;;;;22.71;36.39;98737.63;4958212;28;7151;-75
2023/04/12 13:05:08;;;;;;;;;;;;;;;22.28;36.38;98739.63;4959207;28;6781;-75